sensor_id;sensor_type;location;lat;lon;timestamp;P1;durP1;ratioP1;P2;durP2;ratioP2
69170;SDS011;56279;47.902;12.308;2022-07-29T00:38:08;3.63;;;1.77;;
69170;SDS011;56279;47.902;12.308;2022-07-29T00:57:17;3.15;;;2.00;;
69170;SDS011;56279;47.902;12.308;2022-07-29T01:03:51;3.05;;;1.80;;
69170;SDS011;56279;47.902;12.308;2022-07-29T01:07:26;3.42;;;2.15;;
69170;SDS011;56279;47.902;12.308;2022-07-29T01:10:24;4.88;;;1.92;;
69170;SDS011;56279;47.902;12.308;2022-07-29T01:12:35;3.88;;;2.05;;
69170;SDS011;56279;47.902;12.308;2022-07-29T01:24:33;3.05;;;1.80;;
69170;SDS011;56279;47.902;12.308;2022-07-29T01:33:49;3.40;;;1.80;;
69170;SDS011;56279;47.902;12.308;2022-07-29T01:36:47;2.95;;;1.67;;
69170;SDS011;56279;47.902;12.308;2022-07-29T01:39:38;3.10;;;1.70;;
69170;SDS011;56279;47.902;12.308;2022-07-29T01:48:30;3.28;;;1.83;;
69170;SDS011;56279;47.902;12.308;2022-07-29T01:50:47;3.05;;;2.13;;
69170;SDS011;56279;47.902;12.308;2022-07-29T01:59:32;3.57;;;1.70;;
69170;SDS011;56279;47.902;12.308;2022-07-29T02:01:59;3.65;;;1.90;;
69170;SDS011;56279;47.902;12.308;2022-07-29T02:11:54;2.88;;;1.90;;
69170;SDS011;56279;47.902;12.308;2022-07-29T02:14:13;3.70;;;1.57;;
69170;SDS011;56279;47.902;12.308;2022-07-29T02:16:26;3.03;;;1.55;;
69170;SDS011;56279;47.902;12.308;2022-07-29T02:18:41;2.67;;;1.60;;
69170;SDS011;56279;47.902;12.308;2022-07-29T02:21:10;3.83;;;1.65;;
69170;SDS011;56279;47.902;12.308;2022-07-29T02:24:28;2.40;;;1.70;;
69170;SDS011;56279;47.902;12.308;2022-07-29T02:31:58;3.05;;;1.70;;
69170;SDS011;56279;47.902;12.308;2022-07-29T03:08:05;5.00;;;2.33;;
69170;SDS011;56279;47.902;12.308;2022-07-29T03:15:34;3.90;;;2.20;;
69170;SDS011;56279;47.902;12.308;2022-07-29T03:19:02;4.57;;;2.47;;
69170;SDS011;56279;47.902;12.308;2022-07-29T03:26:08;4.30;;;2.30;;
69170;SDS011;56279;47.902;12.308;2022-07-29T03:29:56;4.63;;;2.10;;
69170;SDS011;56279;47.902;12.308;2022-07-29T03:35:06;3.92;;;2.30;;
69170;SDS011;56279;47.902;12.308;2022-07-29T03:37:18;4.13;;;2.40;;
69170;SDS011;56279;47.902;12.308;2022-07-29T03:39:37;4.78;;;2.33;;
69170;SDS011;56279;47.902;12.308;2022-07-29T03:41:52;5.68;;;2.60;;
69170;SDS011;56279;47.902;12.308;2022-07-29T03:44:42;5.03;;;2.90;;
69170;SDS011;56279;47.902;12.308;2022-07-29T03:46:59;4.80;;;3.15;;
69170;SDS011;56279;47.902;12.308;2022-07-29T03:49:15;5.80;;;2.50;;
69170;SDS011;56279;47.902;12.308;2022-07-29T03:51:22;4.55;;;2.47;;
69170;SDS011;56279;47.902;12.308;2022-07-29T03:53:31;4.45;;;2.42;;
69170;SDS011;56279;47.902;12.308;2022-07-29T03:55:48;4.07;;;2.28;;
69170;SDS011;56279;47.902;12.308;2022-07-29T03:57:59;4.90;;;2.30;;
69170;SDS011;56279;47.902;12.308;2022-07-29T04:00:10;6.17;;;3.13;;
69170;SDS011;56279;47.902;12.308;2022-07-29T04:02:16;5.10;;;2.00;;
69170;SDS011;56279;47.902;12.308;2022-07-29T04:04:25;4.85;;;3.08;;
69170;SDS011;56279;47.902;12.308;2022-07-29T04:06:40;5.55;;;2.20;;
69170;SDS011;56279;47.902;12.308;2022-07-29T04:08:43;3.85;;;2.42;;
69170;SDS011;56279;47.902;12.308;2022-07-29T04:10:50;3.53;;;2.17;;
69170;SDS011;56279;47.902;12.308;2022-07-29T04:12:55;4.60;;;2.53;;
69170;SDS011;56279;47.902;12.308;2022-07-29T04:15:04;4.18;;;2.30;;
69170;SDS011;56279;47.902;12.308;2022-07-29T04:17:07;6.00;;;2.28;;
69170;SDS011;56279;47.902;12.308;2022-07-29T04:19:11;4.03;;;2.40;;
69170;SDS011;56279;47.902;12.308;2022-07-29T04:21:13;5.50;;;2.50;;
69170;SDS011;56279;47.902;12.308;2022-07-29T04:23:15;4.85;;;2.33;;
69170;SDS011;56279;47.902;12.308;2022-07-29T04:25:22;4.75;;;1.92;;
69170;SDS011;56279;47.902;12.308;2022-07-29T04:27:29;3.38;;;2.00;;
69170;SDS011;56279;47.902;12.308;2022-07-29T04:29:32;4.18;;;2.10;;
69170;SDS011;56279;47.902;12.308;2022-07-29T04:34:19;2.70;;;1.73;;
69170;SDS011;56279;47.902;12.308;2022-07-29T04:36:30;3.83;;;2.67;;
69170;SDS011;56279;47.902;12.308;2022-07-29T04:38:54;3.15;;;1.70;;
69170;SDS011;56279;47.902;12.308;2022-07-29T04:41:08;3.47;;;2.00;;
69170;SDS011;56279;47.902;12.308;2022-07-29T04:43:25;3.57;;;1.90;;
69170;SDS011;56279;47.902;12.308;2022-07-29T04:49:11;3.60;;;2.00;;
69170;SDS011;56279;47.902;12.308;2022-07-29T05:25:17;4.73;;;1.90;;
69170;SDS011;56279;47.902;12.308;2022-07-29T05:27:19;4.03;;;2.25;;
69170;SDS011;56279;47.902;12.308;2022-07-29T05:29:21;2.88;;;1.73;;
69170;SDS011;56279;47.902;12.308;2022-07-29T05:31:31;3.60;;;1.90;;
69170;SDS011;56279;47.902;12.308;2022-07-29T05:33:57;3.15;;;1.70;;
69170;SDS011;56279;47.902;12.308;2022-07-29T05:36:03;3.23;;;1.93;;
69170;SDS011;56279;47.902;12.308;2022-07-29T05:38:20;5.05;;;2.05;;
69170;SDS011;56279;47.902;12.308;2022-07-29T05:40:48;3.25;;;1.90;;
69170;SDS011;56279;47.902;12.308;2022-07-29T05:42:53;3.47;;;1.85;;
69170;SDS011;56279;47.902;12.308;2022-07-29T05:44:54;2.70;;;1.67;;
69170;SDS011;56279;47.902;12.308;2022-07-29T05:46:58;2.73;;;1.63;;
69170;SDS011;56279;47.902;12.308;2022-07-29T05:48:59;3.90;;;1.80;;
69170;SDS011;56279;47.902;12.308;2022-07-29T05:51:01;3.33;;;1.70;;
69170;SDS011;56279;47.902;12.308;2022-07-29T05:53:03;3.63;;;1.70;;
69170;SDS011;56279;47.902;12.308;2022-07-29T05:55:04;3.13;;;1.70;;
69170;SDS011;56279;47.902;12.308;2022-07-29T05:57:06;2.63;;;1.50;;
69170;SDS011;56279;47.902;12.308;2022-07-29T05:59:08;4.13;;;2.08;;
69170;SDS011;56279;47.902;12.308;2022-07-29T06:01:09;3.63;;;2.00;;
69170;SDS011;56279;47.902;12.308;2022-07-29T06:03:10;2.58;;;1.60;;
69170;SDS011;56279;47.902;12.308;2022-07-29T06:05:12;4.68;;;1.80;;
69170;SDS011;56279;47.902;12.308;2022-07-29T06:07:13;3.33;;;1.80;;
69170;SDS011;56279;47.902;12.308;2022-07-29T06:09:15;3.22;;;1.77;;
69170;SDS011;56279;47.902;12.308;2022-07-29T06:11:16;3.15;;;2.03;;
69170;SDS011;56279;47.902;12.308;2022-07-29T06:13:17;4.00;;;1.80;;
69170;SDS011;56279;47.902;12.308;2022-07-29T06:15:21;3.80;;;1.70;;
69170;SDS011;56279;47.902;12.308;2022-07-29T06:19:59;2.75;;;1.58;;
69170;SDS011;56279;47.902;12.308;2022-07-29T06:23:17;3.78;;;1.80;;
69170;SDS011;56279;47.902;12.308;2022-07-29T06:25:33;3.85;;;1.65;;
69170;SDS011;56279;47.902;12.308;2022-07-29T06:27:50;3.30;;;1.80;;
69170;SDS011;56279;47.902;12.308;2022-07-29T06:30:00;3.20;;;1.83;;
69170;SDS011;56279;47.902;12.308;2022-07-29T06:32:02;2.97;;;1.63;;
69170;SDS011;56279;47.902;12.308;2022-07-29T06:34:13;3.33;;;1.90;;
69170;SDS011;56279;47.902;12.308;2022-07-29T06:36:19;3.08;;;1.77;;
69170;SDS011;56279;47.902;12.308;2022-07-29T06:38:27;3.10;;;1.70;;
69170;SDS011;56279;47.902;12.308;2022-07-29T06:40:38;2.40;;;1.60;;
69170;SDS011;56279;47.902;12.308;2022-07-29T06:43:49;3.20;;;1.55;;
69170;SDS011;56279;47.902;12.308;2022-07-29T06:46:31;3.72;;;2.03;;
69170;SDS011;56279;47.902;12.308;2022-07-29T06:48:47;3.20;;;1.80;;
69170;SDS011;56279;47.902;12.308;2022-07-29T06:51:22;3.20;;;1.83;;
69170;SDS011;56279;47.902;12.308;2022-07-29T06:53:56;2.97;;;1.80;;
69170;SDS011;56279;47.902;12.308;2022-07-29T07:03:41;4.32;;;1.67;;
69170;SDS011;56279;47.902;12.308;2022-07-29T07:05:43;4.20;;;1.88;;
69170;SDS011;56279;47.902;12.308;2022-07-29T07:18:17;2.90;;;1.80;;
69170;SDS011;56279;47.902;12.308;2022-07-29T07:20:24;3.55;;;1.98;;
69170;SDS011;56279;47.902;12.308;2022-07-29T07:36:25;2.85;;;1.70;;
69170;SDS011;56279;47.902;12.308;2022-07-29T07:39:19;2.77;;;1.60;;
69170;SDS011;56279;47.902;12.308;2022-07-29T07:41:28;4.22;;;2.00;;
69170;SDS011;56279;47.902;12.308;2022-07-29T07:43:37;3.85;;;1.90;;
69170;SDS011;56279;47.902;12.308;2022-07-29T07:45:55;3.33;;;1.60;;
69170;SDS011;56279;47.902;12.308;2022-07-29T07:47:59;3.53;;;1.70;;
69170;SDS011;56279;47.902;12.308;2022-07-29T07:50:14;5.63;;;2.17;;
69170;SDS011;56279;47.902;12.308;2022-07-29T07:52:19;4.57;;;1.90;;
69170;SDS011;56279;47.902;12.308;2022-07-29T07:54:24;3.08;;;1.75;;
69170;SDS011;56279;47.902;12.308;2022-07-29T07:56:29;3.60;;;2.00;;
69170;SDS011;56279;47.902;12.308;2022-07-29T07:58:39;3.67;;;1.90;;
69170;SDS011;56279;47.902;12.308;2022-07-29T08:00:50;4.93;;;1.80;;
69170;SDS011;56279;47.902;12.308;2022-07-29T08:12:11;3.42;;;1.67;;
69170;SDS011;56279;47.902;12.308;2022-07-29T08:14:23;3.37;;;2.00;;
69170;SDS011;56279;47.902;12.308;2022-07-29T08:16:30;4.15;;;2.08;;
69170;SDS011;56279;47.902;12.308;2022-07-29T08:18:34;3.33;;;1.77;;
69170;SDS011;56279;47.902;12.308;2022-07-29T08:20:43;3.92;;;1.90;;
69170;SDS011;56279;47.902;12.308;2022-07-29T08:22:44;3.70;;;1.95;;
69170;SDS011;56279;47.902;12.308;2022-07-29T08:24:46;4.53;;;2.27;;
69170;SDS011;56279;47.902;12.308;2022-07-29T08:26:53;3.25;;;1.67;;
69170;SDS011;56279;47.902;12.308;2022-07-29T08:28:54;3.58;;;2.05;;
69170;SDS011;56279;47.902;12.308;2022-07-29T08:30:56;3.60;;;2.10;;
69170;SDS011;56279;47.902;12.308;2022-07-29T08:32:57;3.90;;;2.00;;
69170;SDS011;56279;47.902;12.308;2022-07-29T08:35:02;3.57;;;1.87;;
69170;SDS011;56279;47.902;12.308;2022-07-29T08:37:04;4.18;;;2.10;;
69170;SDS011;56279;47.902;12.308;2022-07-29T08:39:05;4.70;;;2.20;;
69170;SDS011;56279;47.902;12.308;2022-07-29T08:41:07;3.28;;;1.80;;
69170;SDS011;56279;47.902;12.308;2022-07-29T08:43:08;3.10;;;1.83;;
69170;SDS011;56279;47.902;12.308;2022-07-29T08:45:10;3.70;;;1.90;;
69170;SDS011;56279;47.902;12.308;2022-07-29T08:47:13;6.03;;;2.03;;
69170;SDS011;56279;47.902;12.308;2022-07-29T08:49:15;4.32;;;2.30;;
69170;SDS011;56279;47.902;12.308;2022-07-29T08:51:18;4.32;;;2.22;;
69170;SDS011;56279;47.902;12.308;2022-07-29T08:53:21;3.50;;;2.10;;
69170;SDS011;56279;47.902;12.308;2022-07-29T08:55:24;3.33;;;1.90;;
69170;SDS011;56279;47.902;12.308;2022-07-29T08:57:26;3.95;;;1.90;;
69170;SDS011;56279;47.902;12.308;2022-07-29T09:06:45;3.97;;;2.00;;
69170;SDS011;56279;47.902;12.308;2022-07-29T09:08:48;3.37;;;1.87;;
69170;SDS011;56279;47.902;12.308;2022-07-29T09:10:50;4.43;;;2.00;;
69170;SDS011;56279;47.902;12.308;2022-07-29T09:12:52;4.03;;;1.98;;
69170;SDS011;56279;47.902;12.308;2022-07-29T09:14:55;4.43;;;2.00;;
69170;SDS011;56279;47.902;12.308;2022-07-29T09:16:56;3.40;;;2.20;;
69170;SDS011;56279;47.902;12.308;2022-07-29T09:18:58;3.80;;;2.10;;
69170;SDS011;56279;47.902;12.308;2022-07-29T09:20:59;3.90;;;1.85;;
69170;SDS011;56279;47.902;12.308;2022-07-29T09:23:19;4.82;;;2.30;;
69170;SDS011;56279;47.902;12.308;2022-07-29T09:25:33;3.22;;;1.77;;
69170;SDS011;56279;47.902;12.308;2022-07-29T09:27:35;3.00;;;1.90;;
69170;SDS011;56279;47.902;12.308;2022-07-29T09:29:36;3.67;;;2.00;;
69170;SDS011;56279;47.902;12.308;2022-07-29T09:31:43;4.00;;;1.80;;
69170;SDS011;56279;47.902;12.308;2022-07-29T09:33:46;4.75;;;2.05;;
69170;SDS011;56279;47.902;12.308;2022-07-29T09:35:59;3.60;;;2.10;;
69170;SDS011;56279;47.902;12.308;2022-07-29T09:38:13;4.28;;;1.95;;
69170;SDS011;56279;47.902;12.308;2022-07-29T09:40:18;3.33;;;1.90;;
69170;SDS011;56279;47.902;12.308;2022-07-29T09:42:27;4.75;;;2.05;;
69170;SDS011;56279;47.902;12.308;2022-07-29T09:47:00;3.50;;;1.92;;
69170;SDS011;56279;47.902;12.308;2022-07-29T09:49:10;3.03;;;1.88;;
69170;SDS011;56279;47.902;12.308;2022-07-29T09:51:18;3.70;;;1.90;;
69170;SDS011;56279;47.902;12.308;2022-07-29T09:53:33;4.03;;;2.08;;
69170;SDS011;56279;47.902;12.308;2022-07-29T09:55:48;3.67;;;1.80;;
69170;SDS011;56279;47.902;12.308;2022-07-29T09:57:54;3.75;;;1.80;;
69170;SDS011;56279;47.902;12.308;2022-07-29T10:00:22;3.78;;;2.13;;
69170;SDS011;56279;47.902;12.308;2022-07-29T10:02:32;5.23;;;2.33;;
69170;SDS011;56279;47.902;12.308;2022-07-29T10:04:41;3.92;;;1.90;;
69170;SDS011;56279;47.902;12.308;2022-07-29T10:06:58;3.38;;;2.03;;
69170;SDS011;56279;47.902;12.308;2022-07-29T10:09:10;4.82;;;2.30;;
69170;SDS011;56279;47.902;12.308;2022-07-29T10:11:14;3.65;;;2.00;;
69170;SDS011;56279;47.902;12.308;2022-07-29T10:13:22;4.00;;;1.90;;
69170;SDS011;56279;47.902;12.308;2022-07-29T10:15:30;3.95;;;1.77;;
69170;SDS011;56279;47.902;12.308;2022-07-29T10:17:33;3.80;;;2.03;;
69170;SDS011;56279;47.902;12.308;2022-07-29T10:19:38;4.70;;;1.88;;
69170;SDS011;56279;47.902;12.308;2022-07-29T10:21:40;3.92;;;2.30;;
69170;SDS011;56279;47.902;12.308;2022-07-29T10:23:45;4.23;;;2.00;;
69170;SDS011;56279;47.902;12.308;2022-07-29T10:25:47;4.18;;;2.15;;
69170;SDS011;56279;47.902;12.308;2022-07-29T10:27:55;4.85;;;2.10;;
69170;SDS011;56279;47.902;12.308;2022-07-29T10:30:00;3.80;;;1.92;;
69170;SDS011;56279;47.902;12.308;2022-07-29T10:37:37;4.13;;;2.00;;
69170;SDS011;56279;47.902;12.308;2022-07-29T10:40:07;3.72;;;1.70;;
69170;SDS011;56279;47.902;12.308;2022-07-29T10:42:37;2.40;;;1.60;;
69170;SDS011;56279;47.902;12.308;2022-07-29T10:44:41;3.30;;;1.95;;
69170;SDS011;56279;47.902;12.308;2022-07-29T10:46:46;3.33;;;1.70;;
69170;SDS011;56279;47.902;12.308;2022-07-29T10:49:06;3.38;;;1.70;;
69170;SDS011;56279;47.902;12.308;2022-07-29T10:54:00;2.72;;;1.70;;
69170;SDS011;56279;47.902;12.308;2022-07-29T10:56:05;2.70;;;1.70;;
69170;SDS011;56279;47.902;12.308;2022-07-29T10:58:36;3.37;;;1.70;;
69170;SDS011;56279;47.902;12.308;2022-07-29T11:00:45;2.78;;;1.73;;
69170;SDS011;56279;47.902;12.308;2022-07-29T11:02:48;7.22;;;2.13;;
69170;SDS011;56279;47.902;12.308;2022-07-29T11:09:19;4.17;;;2.00;;
69170;SDS011;56279;47.902;12.308;2022-07-29T11:13:53;3.55;;;1.90;;
69170;SDS011;56279;47.902;12.308;2022-07-29T11:15:58;2.85;;;1.83;;
69170;SDS011;56279;47.902;12.308;2022-07-29T11:22:42;3.80;;;1.90;;
69170;SDS011;56279;47.902;12.308;2022-07-29T11:24:44;2.85;;;1.83;;
69170;SDS011;56279;47.902;12.308;2022-07-29T11:26:45;4.20;;;2.25;;
69170;SDS011;56279;47.902;12.308;2022-07-29T11:29:14;4.85;;;2.13;;
69170;SDS011;56279;47.902;12.308;2022-07-29T11:33:55;4.22;;;2.35;;
69170;SDS011;56279;47.902;12.308;2022-07-29T11:36:16;6.60;;;2.40;;
69170;SDS011;56279;47.902;12.308;2022-07-29T11:38:23;3.33;;;2.00;;
69170;SDS011;56279;47.902;12.308;2022-07-29T11:40:28;3.65;;;1.98;;
69170;SDS011;56279;47.902;12.308;2022-07-29T11:47:07;3.35;;;1.77;;
69170;SDS011;56279;47.902;12.308;2022-07-29T11:49:10;5.00;;;1.98;;
69170;SDS011;56279;47.902;12.308;2022-07-29T11:51:15;3.67;;;2.45;;
69170;SDS011;56279;47.902;12.308;2022-07-29T11:53:23;3.53;;;2.10;;
69170;SDS011;56279;47.902;12.308;2022-07-29T11:55:28;3.00;;;1.92;;
69170;SDS011;56279;47.902;12.308;2022-07-29T11:57:35;4.57;;;1.90;;
69170;SDS011;56279;47.902;12.308;2022-07-29T11:59:41;4.43;;;2.03;;
69170;SDS011;56279;47.902;12.308;2022-07-29T12:01:56;5.15;;;2.22;;
69170;SDS011;56279;47.902;12.308;2022-07-29T12:04:02;4.83;;;2.10;;
69170;SDS011;56279;47.902;12.308;2022-07-29T12:06:14;4.65;;;2.00;;
69170;SDS011;56279;47.902;12.308;2022-07-29T12:08:18;3.75;;;1.85;;
69170;SDS011;56279;47.902;12.308;2022-07-29T12:10:29;4.45;;;2.25;;
69170;SDS011;56279;47.902;12.308;2022-07-29T12:12:34;4.63;;;2.17;;
69170;SDS011;56279;47.902;12.308;2022-07-29T12:14:41;4.90;;;2.03;;
69170;SDS011;56279;47.902;12.308;2022-07-29T12:16:47;3.42;;;2.10;;
69170;SDS011;56279;47.902;12.308;2022-07-29T12:19:22;4.22;;;2.20;;
69170;SDS011;56279;47.902;12.308;2022-07-29T12:21:16;3.85;;;2.10;;
69170;SDS011;56279;47.902;12.308;2022-07-29T12:23:17;5.30;;;2.00;;
69170;SDS011;56279;47.902;12.308;2022-07-29T12:25:19;4.97;;;2.23;;
69170;SDS011;56279;47.902;12.308;2022-07-29T12:27:25;3.88;;;2.10;;
69170;SDS011;56279;47.902;12.308;2022-07-29T12:29:29;4.45;;;2.17;;
69170;SDS011;56279;47.902;12.308;2022-07-29T12:31:34;4.50;;;2.20;;
69170;SDS011;56279;47.902;12.308;2022-07-29T12:33:36;4.68;;;2.30;;
69170;SDS011;56279;47.902;12.308;2022-07-29T12:35:37;4.93;;;2.30;;
69170;SDS011;56279;47.902;12.308;2022-07-29T12:37:40;4.50;;;2.42;;
69170;SDS011;56279;47.902;12.308;2022-07-29T12:39:52;3.60;;;2.20;;
69170;SDS011;56279;47.902;12.308;2022-07-29T12:41:57;5.20;;;2.40;;
69170;SDS011;56279;47.902;12.308;2022-07-29T12:44:03;4.28;;;2.50;;
69170;SDS011;56279;47.902;12.308;2022-07-29T12:46:26;4.13;;;2.20;;
69170;SDS011;56279;47.902;12.308;2022-07-29T12:51:01;4.28;;;2.20;;
69170;SDS011;56279;47.902;12.308;2022-07-29T12:53:13;3.92;;;2.28;;
69170;SDS011;56279;47.902;12.308;2022-07-29T12:55:14;3.90;;;2.22;;
69170;SDS011;56279;47.902;12.308;2022-07-29T12:57:48;5.17;;;2.33;;
69170;SDS011;56279;47.902;12.308;2022-07-29T13:00:09;4.50;;;2.20;;
69170;SDS011;56279;47.902;12.308;2022-07-29T13:02:23;4.00;;;2.17;;
69170;SDS011;56279;47.902;12.308;2022-07-29T13:04:32;6.88;;;2.20;;
69170;SDS011;56279;47.902;12.308;2022-07-29T13:06:45;4.13;;;2.10;;
69170;SDS011;56279;47.902;12.308;2022-07-29T13:11:26;4.15;;;2.10;;
69170;SDS011;56279;47.902;12.308;2022-07-29T13:13:31;4.50;;;2.25;;
69170;SDS011;56279;47.902;12.308;2022-07-29T13:15:33;4.03;;;2.13;;
69170;SDS011;56279;47.902;12.308;2022-07-29T13:17:39;4.50;;;2.20;;
69170;SDS011;56279;47.902;12.308;2022-07-29T13:19:44;3.47;;;1.97;;
69170;SDS011;56279;47.902;12.308;2022-07-29T13:21:50;3.53;;;2.33;;
69170;SDS011;56279;47.902;12.308;2022-07-29T13:23:51;4.88;;;2.63;;
69170;SDS011;56279;47.902;12.308;2022-07-29T13:25:53;3.90;;;2.15;;
69170;SDS011;56279;47.902;12.308;2022-07-29T13:27:55;4.25;;;2.40;;
69170;SDS011;56279;47.902;12.308;2022-07-29T13:29:57;5.43;;;2.40;;
69170;SDS011;56279;47.902;12.308;2022-07-29T13:32:00;4.38;;;2.10;;
69170;SDS011;56279;47.902;12.308;2022-07-29T13:34:01;4.82;;;2.28;;
69170;SDS011;56279;47.902;12.308;2022-07-29T13:36:03;3.28;;;2.13;;
69170;SDS011;56279;47.902;12.308;2022-07-29T13:38:04;3.70;;;2.15;;
69170;SDS011;56279;47.902;12.308;2022-07-29T13:40:08;4.47;;;2.60;;
69170;SDS011;56279;47.902;12.308;2022-07-29T13:42:10;3.40;;;2.10;;
69170;SDS011;56279;47.902;12.308;2022-07-29T13:44:14;3.78;;;2.10;;
69170;SDS011;56279;47.902;12.308;2022-07-29T13:46:15;3.67;;;2.08;;
69170;SDS011;56279;47.902;12.308;2022-07-29T13:48:16;6.72;;;2.17;;
69170;SDS011;56279;47.902;12.308;2022-07-29T13:50:21;3.50;;;1.90;;
69170;SDS011;56279;47.902;12.308;2022-07-29T13:52:23;4.70;;;1.95;;
69170;SDS011;56279;47.902;12.308;2022-07-29T13:54:24;3.78;;;1.90;;
69170;SDS011;56279;47.902;12.308;2022-07-29T13:56:35;2.88;;;1.88;;
69170;SDS011;56279;47.902;12.308;2022-07-29T13:58:38;3.50;;;1.98;;
69170;SDS011;56279;47.902;12.308;2022-07-29T14:00:46;4.33;;;2.00;;
69170;SDS011;56279;47.902;12.308;2022-07-29T14:02:53;3.50;;;2.00;;
69170;SDS011;56279;47.902;12.308;2022-07-29T14:04:57;4.78;;;2.25;;
69170;SDS011;56279;47.902;12.308;2022-07-29T14:06:59;4.97;;;1.83;;
69170;SDS011;56279;47.902;12.308;2022-07-29T14:09:09;3.70;;;2.00;;
69170;SDS011;56279;47.902;12.308;2022-07-29T14:11:13;4.37;;;1.90;;
69170;SDS011;56279;47.902;12.308;2022-07-29T14:13:32;4.13;;;1.90;;
69170;SDS011;56279;47.902;12.308;2022-07-29T14:15:33;3.47;;;2.00;;
69170;SDS011;56279;47.902;12.308;2022-07-29T14:17:39;3.90;;;1.75;;
69170;SDS011;56279;47.902;12.308;2022-07-29T14:19:44;3.90;;;2.25;;
69170;SDS011;56279;47.902;12.308;2022-07-29T14:21:46;3.77;;;1.97;;
69170;SDS011;56279;47.902;12.308;2022-07-29T14:23:49;4.55;;;2.30;;
69170;SDS011;56279;47.902;12.308;2022-07-29T14:25:56;3.47;;;1.98;;
69170;SDS011;56279;47.902;12.308;2022-07-29T14:28:00;3.67;;;2.10;;
69170;SDS011;56279;47.902;12.308;2022-07-29T14:30:01;5.13;;;2.00;;
69170;SDS011;56279;47.902;12.308;2022-07-29T14:32:12;6.07;;;2.60;;
69170;SDS011;56279;47.902;12.308;2022-07-29T14:34:22;5.13;;;2.10;;
69170;SDS011;56279;47.902;12.308;2022-07-29T14:36:29;3.60;;;2.00;;
69170;SDS011;56279;47.902;12.308;2022-07-29T14:38:48;4.15;;;2.00;;
69170;SDS011;56279;47.902;12.308;2022-07-29T14:43:57;4.43;;;2.00;;
69170;SDS011;56279;47.902;12.308;2022-07-29T14:46:07;4.28;;;2.05;;
69170;SDS011;56279;47.902;12.308;2022-07-29T14:48:15;4.35;;;2.10;;
69170;SDS011;56279;47.902;12.308;2022-07-29T14:50:43;3.75;;;1.90;;
69170;SDS011;56279;47.902;12.308;2022-07-29T14:52:46;4.50;;;2.58;;
69170;SDS011;56279;47.902;12.308;2022-07-29T14:54:57;3.80;;;2.50;;
69170;SDS011;56279;47.902;12.308;2022-07-29T14:56:58;4.18;;;2.20;;
69170;SDS011;56279;47.902;12.308;2022-07-29T14:59:00;9.75;;;2.30;;
69170;SDS011;56279;47.902;12.308;2022-07-29T15:01:01;3.47;;;2.15;;
69170;SDS011;56279;47.902;12.308;2022-07-29T15:03:03;4.60;;;2.17;;
69170;SDS011;56279;47.902;12.308;2022-07-29T15:05:06;3.87;;;2.10;;
69170;SDS011;56279;47.902;12.308;2022-07-29T15:07:07;4.65;;;2.22;;
69170;SDS011;56279;47.902;12.308;2022-07-29T15:09:09;4.60;;;2.13;;
69170;SDS011;56279;47.902;12.308;2022-07-29T15:11:10;4.20;;;2.40;;
69170;SDS011;56279;47.902;12.308;2022-07-29T15:13:11;3.60;;;2.15;;
69170;SDS011;56279;47.902;12.308;2022-07-29T15:15:13;4.37;;;2.40;;
69170;SDS011;56279;47.902;12.308;2022-07-29T15:17:14;4.90;;;2.10;;
69170;SDS011;56279;47.902;12.308;2022-07-29T15:19:16;4.60;;;2.22;;
69170;SDS011;56279;47.902;12.308;2022-07-29T15:21:17;3.85;;;2.13;;
69170;SDS011;56279;47.902;12.308;2022-07-29T15:23:18;5.13;;;2.30;;
69170;SDS011;56279;47.902;12.308;2022-07-29T15:25:20;3.30;;;2.13;;
69170;SDS011;56279;47.902;12.308;2022-07-29T15:27:21;4.30;;;2.15;;
69170;SDS011;56279;47.902;12.308;2022-07-29T15:29:23;5.22;;;2.40;;
69170;SDS011;56279;47.902;12.308;2022-07-29T15:31:24;4.03;;;2.10;;
69170;SDS011;56279;47.902;12.308;2022-07-29T15:33:28;4.75;;;2.40;;
69170;SDS011;56279;47.902;12.308;2022-07-29T15:35:30;4.63;;;2.03;;
69170;SDS011;56279;47.902;12.308;2022-07-29T15:37:32;4.45;;;2.30;;
69170;SDS011;56279;47.902;12.308;2022-07-29T15:39:35;6.50;;;2.78;;
69170;SDS011;56279;47.902;12.308;2022-07-29T15:41:38;3.55;;;2.05;;
69170;SDS011;56279;47.902;12.308;2022-07-29T15:43:45;4.90;;;2.40;;
69170;SDS011;56279;47.902;12.308;2022-07-29T15:45:49;5.60;;;2.30;;
69170;SDS011;56279;47.902;12.308;2022-07-29T15:48:15;4.28;;;2.13;;
69170;SDS011;56279;47.902;12.308;2022-07-29T15:50:19;4.40;;;2.20;;
69170;SDS011;56279;47.902;12.308;2022-07-29T15:52:32;5.47;;;2.30;;
69170;SDS011;56279;47.902;12.308;2022-07-29T16:00:42;4.88;;;2.30;;
69170;SDS011;56279;47.902;12.308;2022-07-29T16:09:31;4.50;;;2.42;;
69170;SDS011;56279;47.902;12.308;2022-07-29T16:43:31;4.05;;;1.95;;
69170;SDS011;56279;47.902;12.308;2022-07-29T17:25:58;5.40;;;2.67;;
69170;SDS011;56279;47.902;12.308;2022-07-29T17:31:43;4.57;;;2.83;;
69170;SDS011;56279;47.902;12.308;2022-07-29T17:45:20;7.50;;;3.60;;
69170;SDS011;56279;47.902;12.308;2022-07-29T17:47:36;5.63;;;3.10;;
69170;SDS011;56279;47.902;12.308;2022-07-29T17:49:50;9.13;;;3.50;;
69170;SDS011;56279;47.902;12.308;2022-07-29T17:51:57;9.40;;;3.33;;
69170;SDS011;56279;47.902;12.308;2022-07-29T18:00:57;6.80;;;3.80;;
69170;SDS011;56279;47.902;12.308;2022-07-29T18:03:02;5.70;;;2.92;;
69170;SDS011;56279;47.902;12.308;2022-07-29T18:10:55;6.13;;;3.07;;
69170;SDS011;56279;47.902;12.308;2022-07-29T18:13:09;5.65;;;2.97;;
69170;SDS011;56279;47.902;12.308;2022-07-29T18:15:28;6.03;;;3.17;;
69170;SDS011;56279;47.902;12.308;2022-07-29T18:20:30;6.50;;;2.97;;
69170;SDS011;56279;47.902;12.308;2022-07-29T18:53:27;4.30;;;2.50;;
69170;SDS011;56279;47.902;12.308;2022-07-29T18:55:40;4.35;;;2.58;;
69170;SDS011;56279;47.902;12.308;2022-07-29T18:57:58;3.55;;;2.03;;
69170;SDS011;56279;47.902;12.308;2022-07-29T19:00:56;4.32;;;2.42;;
69170;SDS011;56279;47.902;12.308;2022-07-29T20:22:05;4.83;;;2.50;;
69170;SDS011;56279;47.902;12.308;2022-07-29T20:24:12;4.80;;;2.67;;
69170;SDS011;56279;47.902;12.308;2022-07-29T20:26:26;4.32;;;2.33;;
69170;SDS011;56279;47.902;12.308;2022-07-29T20:28:33;4.50;;;2.50;;
69170;SDS011;56279;47.902;12.308;2022-07-29T20:30:40;4.85;;;2.60;;
69170;SDS011;56279;47.902;12.308;2022-07-29T20:36:04;4.85;;;2.70;;
69170;SDS011;56279;47.902;12.308;2022-07-29T20:38:05;4.57;;;2.70;;
69170;SDS011;56279;47.902;12.308;2022-07-29T20:40:10;6.22;;;2.67;;
69170;SDS011;56279;47.902;12.308;2022-07-29T20:42:12;6.72;;;3.85;;
69170;SDS011;56279;47.902;12.308;2022-07-29T20:44:14;4.40;;;2.20;;
69170;SDS011;56279;47.902;12.308;2022-07-29T20:46:18;5.63;;;2.65;;
69170;SDS011;56279;47.902;12.308;2022-07-29T20:48:20;4.50;;;2.50;;
69170;SDS011;56279;47.902;12.308;2022-07-29T20:50:21;5.82;;;2.50;;
69170;SDS011;56279;47.902;12.308;2022-07-29T20:52:24;3.90;;;2.25;;
69170;SDS011;56279;47.902;12.308;2022-07-29T20:54:26;3.70;;;2.00;;
69170;SDS011;56279;47.902;12.308;2022-07-29T20:56:30;5.07;;;2.42;;
69170;SDS011;56279;47.902;12.308;2022-07-29T20:58:34;2.97;;;1.98;;
69170;SDS011;56279;47.902;12.308;2022-07-29T21:00:36;3.83;;;2.08;;
69170;SDS011;56279;47.902;12.308;2022-07-29T21:02:37;4.13;;;2.28;;
69170;SDS011;56279;47.902;12.308;2022-07-29T21:04:41;4.10;;;2.00;;
69170;SDS011;56279;47.902;12.308;2022-07-29T21:06:43;3.70;;;2.10;;
69170;SDS011;56279;47.902;12.308;2022-07-29T21:08:47;4.28;;;2.00;;
69170;SDS011;56279;47.902;12.308;2022-07-29T21:10:49;5.13;;;2.60;;
69170;SDS011;56279;47.902;12.308;2022-07-29T21:12:50;3.53;;;2.40;;
69170;SDS011;56279;47.902;12.308;2022-07-29T21:14:55;3.83;;;2.40;;